02:01 Laufen Moetz - Schotter - Telfs - Fiecht - Locherboden - Moetz
Ort Moetz Datum 10.01.2015 13:05:47
Kategorie Strasse
Distanz 24,99 Kilometer Steigung 393,0 Meter Gefälle -351,0 Meter
Gesamt Zeit 02:02:43 Aktiv 02:01:08 Pause 00:01:35
Durchs. Tempo 00:04:50 min/km Tempo max. 00:03:46 min/km Tempo min. 00:08:17 min/km
Kalorien 0 Durchs. HF 138 BPM HF max. 160 BPM
Wetter 19 °C PartClouds Min/Max: 16,9 °C/19,5 °C; Druck: 1017,0 mbar; Rel. Feuchte: 37,1%; Taupunkt: 3,2 °C; Windgeschwindigkeit: 12,0 km/h; Niederschlag: 0,0mm
Ausrüstung Nike - Zoom Wildhorse GTX
Nogler - Einlagen Moetz
Sigvaris - Sleeves & Socks
Notiz Moetz - Schotter - Telfs - Fiecht - Locherboden - Moetz ... nass und matschig, sehr warm, locker bis flott - A1/A2 ... garmin connect
Splits
Distanz (km) Gesamt Zeit Split Zeit Split Tempo Split Tempo Höhenprofil (m)
1,00 00:04:50 00:04:50 00:04:51 12,4 -9,75
2,00 00:09:25 00:04:34 00:04:35 13,1 -0,96
3,00 00:13:53 00:04:27 00:04:28 13,4 -4,26
4,00 00:18:20 00:04:27 00:04:28 13,5 -3,05
5,00 00:22:47 00:04:27 00:04:27 13,5 -2,72
6,00 00:27:17 00:04:29 00:04:30 13,3 -2,10
7,00 00:31:44 00:04:26 00:04:27 13,5 -2,88
8,00 00:36:13 00:04:28 00:04:29 13,4 -1,78
9,00 00:40:48 00:04:35 00:04:35 13,1 3,15
10,00 00:45:18 00:04:30 00:04:30 13,3 -2,47
11,00 00:49:44 00:04:25 00:04:26 13,5 -2,15
12,00 00:54:19 00:04:34 00:04:35 13,1 -0,59
13,00 00:58:56 00:04:37 00:04:37 13,0 0,24
14,00 01:04:33 00:05:36 00:05:37 10,7 63,43
15,00 01:10:14 00:05:41 00:05:41 10,6 46,43
16,00 01:15:18 00:05:04 00:05:04 11,8 26,22
17,00 01:21:03 00:05:44 00:05:45 10,4 51,70
18,00 01:26:23 00:05:19 00:05:20 11,3 18,23
19,00 01:31:41 00:05:18 00:05:18 11,3 15,79
20,00 01:37:00 00:05:18 00:05:19 11,3 21,34
21,00 01:41:12 00:04:12 00:04:13 14,2 -70,48
22,00 01:46:30 00:05:17 00:05:17 11,3 18,24
23,00 01:51:39 00:05:08 00:05:09 11,7 11,90
24,00 01:56:23 00:04:44 00:04:45 12,6 -54,17
25,00 02:00:42 00:04:18 00:04:18 13,9 -112,05
25,11 02:01:11 00:00:28 00:04:15 14,1 -3,94